createdAt,value
2024-01-30T00:01:26.994Z,28.30
2024-01-30T00:03:54.219Z,23.38
2024-01-30T00:06:25.228Z,26.35
2024-01-30T00:08:52.348Z,25.58
2024-01-30T00:11:19.381Z,25.48
2024-01-30T00:13:46.467Z,32.08
2024-01-30T00:16:23.447Z,32.30
2024-01-30T00:18:52.011Z,32.75
2024-01-30T00:21:19.871Z,28.15
2024-01-30T00:23:47.440Z,28.80
2024-01-30T00:26:15.949Z,31.00
2024-01-30T00:28:43.567Z,33.80
2024-01-30T00:31:13.969Z,25.65
2024-01-30T00:33:41.819Z,27.30
2024-01-30T00:36:10.607Z,25.52
2024-01-30T00:38:38.543Z,28.25
2024-01-30T00:41:05.956Z,24.20
2024-01-30T00:43:33.107Z,31.83
2024-01-30T00:46:00.569Z,29.15
2024-01-30T00:48:27.777Z,24.70
2024-01-30T00:50:54.911Z,32.60
2024-01-30T00:53:22.915Z,31.67
2024-01-30T00:55:49.981Z,28.02
2024-01-30T00:58:17.970Z,23.92
2024-01-30T01:00:45.137Z,28.38
2024-01-30T01:03:12.305Z,31.55
2024-01-30T01:05:40.099Z,29.75
2024-01-30T01:08:07.607Z,26.08
2024-01-30T01:10:34.797Z,26.98
2024-01-30T01:13:01.986Z,26.85
2024-01-30T01:15:30.562Z,24.00
2024-01-30T01:17:58.491Z,33.78
2024-01-30T01:20:25.700Z,27.83
2024-01-30T01:22:53.836Z,34.92
2024-01-30T01:25:21.045Z,25.90
2024-01-30T01:27:52.844Z,31.95
2024-01-30T01:30:22.921Z,30.67
2024-01-30T01:32:57.648Z,29.25
2024-01-30T01:35:26.291Z,32.15
2024-01-30T01:37:57.266Z,29.60
2024-01-30T01:40:28.594Z,35.55
2024-01-30T01:42:57.920Z,26.02
2024-01-30T01:45:26.016Z,27.48
2024-01-30T01:47:53.827Z,29.08
2024-01-30T01:50:23.313Z,27.38
2024-01-30T01:52:52.092Z,29.13
2024-01-30T01:55:25.905Z,34.00
2024-01-30T01:57:54.922Z,27.50
2024-01-30T02:00:22.852Z,26.85
2024-01-30T02:02:50.705Z,27.45
2024-01-30T02:05:18.092Z,33.10
2024-01-30T02:07:45.450Z,24.45
2024-01-30T02:10:12.908Z,33.72
2024-01-30T02:12:40.806Z,28.30
2024-01-30T02:15:09.269Z,31.70
2024-01-30T02:17:36.568Z,27.15
2024-01-30T02:20:04.824Z,29.88
2024-01-30T02:22:35.139Z,29.98
2024-01-30T02:25:02.433Z,18.75
2024-01-30T02:27:30.154Z,25.70
2024-01-30T02:29:57.194Z,27.70
2024-01-30T02:32:24.246Z,30.77
2024-01-30T02:34:51.317Z,29.00
2024-01-30T02:37:18.551Z,25.60
2024-01-30T02:39:45.766Z,23.63
2024-01-30T02:42:12.818Z,25.20
2024-01-30T02:44:39.873Z,30.77
2024-01-30T02:47:06.945Z,29.80
2024-01-30T02:49:34.193Z,22.73
2024-01-30T02:52:01.413Z,24.85
2024-01-30T02:54:28.644Z,29.80
2024-01-30T02:56:55.734Z,35.60
2024-01-30T02:59:23.196Z,24.27
2024-01-30T03:01:50.453Z,30.90
2024-01-30T03:04:18.501Z,31.20
2024-01-30T03:06:47.800Z,22.55
2024-01-30T03:09:17.693Z,29.13
2024-01-30T03:11:45.188Z,23.45
2024-01-30T03:14:12.691Z,23.05
2024-01-30T03:16:39.849Z,19.75
2024-01-30T03:19:11.124Z,29.92
2024-01-30T03:21:38.481Z,24.80
2024-01-30T03:24:05.956Z,28.45
2024-01-30T03:26:33.571Z,21.73
2024-01-30T03:29:00.692Z,24.33
2024-01-30T03:31:27.939Z,23.20
2024-01-30T03:33:55.270Z,22.30
2024-01-30T03:36:23.004Z,27.98
2024-01-30T03:38:50.033Z,27.23
2024-01-30T03:41:17.118Z,28.92
2024-01-30T03:43:44.265Z,29.80
2024-01-30T03:46:12.949Z,20.50
2024-01-30T03:48:40.483Z,25.95
2024-01-30T03:51:07.583Z,27.60
2024-01-30T03:53:35.329Z,23.38
2024-01-30T03:56:02.338Z,31.52
2024-01-30T03:58:29.417Z,30.02
2024-01-30T04:00:56.688Z,23.63
2024-01-30T04:03:23.830Z,22.17
2024-01-30T04:05:52.196Z,26.13
2024-01-30T04:08:19.540Z,21.42
2024-01-30T04:10:47.648Z,23.77
2024-01-30T04:13:14.720Z,27.73
2024-01-30T04:15:41.903Z,32.53
2024-01-30T04:18:09.208Z,30.90
2024-01-30T04:20:36.265Z,30.02
2024-01-30T04:23:03.446Z,27.13
2024-01-30T04:25:30.508Z,28.27
2024-01-30T04:27:57.594Z,32.42
2024-01-30T04:30:24.657Z,26.08
2024-01-30T04:32:51.829Z,27.20
2024-01-30T04:35:18.995Z,26.85
2024-01-30T04:37:46.081Z,33.08
2024-01-30T04:40:13.623Z,36.53
2024-01-30T04:42:40.759Z,24.75
2024-01-30T04:45:08.781Z,27.10
2024-01-30T04:47:35.889Z,33.55
2024-01-30T04:50:05.789Z,25.92
2024-01-30T04:52:33.062Z,26.52
2024-01-30T04:55:00.428Z,28.25
2024-01-30T04:57:27.755Z,27.48
2024-01-30T04:59:54.933Z,27.42
2024-01-30T05:02:22.062Z,27.75
2024-01-30T05:04:49.290Z,28.67
2024-01-30T05:07:16.352Z,28.33
2024-01-30T05:09:43.404Z,20.85
2024-01-30T05:12:10.423Z,22.27
2024-01-30T05:14:37.732Z,29.25
2024-01-30T05:17:05.031Z,20.20
2024-01-30T05:19:32.191Z,26.30
2024-01-30T05:22:00.025Z,23.33
2024-01-30T05:24:28.179Z,23.02
2024-01-30T05:26:55.363Z,20.27
2024-01-30T05:29:23.202Z,20.92
2024-01-30T05:31:50.523Z,20.48
2024-01-30T05:34:17.834Z,20.35
2024-01-30T05:36:45.415Z,27.42
2024-01-30T05:39:12.454Z,21.05
2024-01-30T05:41:39.703Z,21.88
2024-01-30T05:44:06.835Z,20.00
2024-01-30T05:46:35.180Z,18.00
2024-01-30T05:49:02.283Z,21.13
2024-01-30T05:51:29.595Z,23.17
2024-01-30T05:53:56.725Z,25.17
2024-01-30T05:56:23.855Z,20.80
2024-01-30T05:58:53.842Z,27.58
2024-01-30T06:01:21.307Z,25.30
2024-01-30T06:03:48.939Z,19.55
2024-01-30T06:06:16.749Z,37.28
2024-01-30T06:08:43.828Z,23.58
2024-01-30T06:11:13.150Z,24.67
2024-01-30T06:13:40.187Z,25.38
2024-01-30T06:16:11.850Z,20.02
2024-01-30T06:18:38.951Z,26.67
2024-01-30T06:21:07.613Z,25.35
2024-01-30T06:23:35.359Z,25.00
2024-01-30T06:26:02.405Z,26.55
2024-01-30T06:28:29.516Z,30.40
2024-01-30T06:30:56.888Z,22.48
2024-01-30T06:33:24.078Z,25.55
2024-01-30T06:35:51.446Z,24.10
2024-01-30T06:38:18.589Z,20.95
2024-01-30T06:40:45.629Z,26.75
2024-01-30T06:43:13.180Z,27.67
2024-01-30T06:45:40.243Z,29.80
2024-01-30T06:48:08.918Z,22.63
2024-01-30T06:50:36.117Z,33.63
2024-01-30T06:53:03.300Z,27.30
2024-01-30T06:55:30.642Z,27.67
2024-01-30T06:57:57.817Z,30.80
2024-01-30T07:00:25.066Z,26.50
2024-01-30T07:02:52.214Z,29.25
2024-01-30T07:05:19.527Z,28.33
2024-01-30T07:07:46.630Z,31.20
2024-01-30T07:10:14.228Z,26.33
2024-01-30T07:12:41.400Z,26.83
2024-01-30T07:15:11.740Z,28.75
2024-01-30T07:17:39.111Z,29.23
2024-01-30T07:20:07.426Z,28.42
2024-01-30T07:22:34.877Z,39.10
2024-01-30T07:25:02.279Z,31.33
2024-01-30T07:27:29.523Z,25.98
2024-01-30T07:29:56.758Z,27.13
2024-01-30T07:32:24.953Z,30.45
2024-01-30T07:35:02.493Z,29.52
2024-01-30T07:37:34.740Z,30.52
2024-01-30T07:40:03.930Z,22.55
2024-01-30T07:42:31.074Z,25.90
2024-01-30T07:44:58.173Z,22.88
2024-01-30T07:47:25.827Z,26.80
2024-01-30T07:49:53.826Z,27.98
2024-01-30T07:52:20.998Z,31.10
2024-01-30T07:54:48.514Z,29.58
2024-01-30T07:57:15.611Z,24.17
2024-01-30T07:59:46.390Z,24.48
2024-01-30T08:02:14.465Z,29.23
2024-01-30T08:04:42.238Z,29.73
2024-01-30T08:07:09.693Z,28.65
2024-01-30T08:09:36.919Z,23.73
2024-01-30T08:12:04.488Z,32.85
2024-01-30T08:14:31.547Z,26.23
2024-01-30T08:16:58.728Z,33.53
2024-01-30T08:19:26.264Z,31.95
2024-01-30T08:21:53.595Z,36.40
2024-01-30T08:24:20.961Z,32.80
2024-01-30T08:26:48.072Z,25.83
2024-01-30T08:29:15.324Z,31.42
2024-01-30T08:31:42.526Z,33.85
2024-01-30T08:34:09.692Z,34.70
2024-01-30T08:36:37.467Z,31.88
2024-01-30T08:39:06.418Z,32.08
2024-01-30T08:41:33.797Z,30.13
2024-01-30T08:44:01.189Z,33.58
2024-01-30T08:46:28.434Z,40.03
2024-01-30T08:48:55.881Z,31.30
2024-01-30T08:51:23.106Z,36.00
2024-01-30T08:53:50.298Z,32.20
2024-01-30T08:56:18.169Z,37.50
2024-01-30T08:58:46.003Z,34.22
2024-01-30T09:01:13.632Z,37.47
2024-01-30T09:03:42.372Z,53.38
2024-01-30T09:06:13.077Z,27.05
2024-01-30T09:08:40.277Z,30.42
2024-01-30T09:11:14.794Z,30.80
2024-01-30T09:13:42.386Z,35.88
2024-01-30T09:16:09.606Z,37.28
2024-01-30T09:18:37.197Z,41.95
2024-01-30T09:21:04.441Z,43.63
2024-01-30T09:23:31.847Z,43.92
2024-01-30T09:25:58.889Z,37.20
2024-01-30T09:28:27.757Z,32.45
2024-01-30T09:30:55.257Z,31.35
2024-01-30T09:33:22.496Z,39.40
2024-01-30T09:35:49.735Z,30.48
2024-01-30T09:38:17.112Z,33.05
2024-01-30T09:40:45.318Z,42.38
2024-01-30T09:43:18.257Z,42.10
2024-01-30T09:45:47.763Z,38.25
2024-01-30T09:48:16.283Z,30.75
2024-01-30T09:50:43.533Z,52.55
2024-01-30T09:53:10.749Z,35.40
2024-01-30T09:55:38.175Z,41.40
2024-01-30T09:58:06.982Z,35.53
2024-01-30T10:00:34.088Z,35.92
2024-01-30T10:03:01.205Z,40.83
2024-01-30T10:05:29.943Z,63.38
2024-01-30T10:07:58.466Z,65.30
2024-01-30T10:10:26.068Z,49.20
2024-01-30T10:12:53.259Z,42.63
2024-01-30T10:15:30.155Z,50.40
2024-01-30T10:17:57.751Z,53.28
2024-01-30T10:20:26.349Z,55.65
2024-01-30T10:22:53.619Z,48.60
2024-01-30T10:25:22.602Z,50.13
2024-01-30T10:27:55.632Z,52.75
2024-01-30T10:30:24.179Z,38.92
2024-01-30T10:32:52.701Z,42.17
2024-01-30T10:35:20.242Z,37.03
2024-01-30T10:37:50.542Z,35.60
2024-01-30T10:40:18.428Z,38.40
2024-01-30T10:42:47.100Z,38.45
2024-01-30T10:45:16.942Z,38.85
2024-01-30T10:47:51.515Z,43.00
2024-01-30T10:50:19.817Z,39.92
2024-01-30T10:52:48.414Z,47.42
2024-01-30T10:55:17.211Z,49.75
2024-01-30T10:57:44.789Z,41.15
2024-01-30T11:00:16.641Z,50.70
2024-01-30T11:02:46.135Z,52.83
2024-01-30T11:05:14.328Z,43.40
2024-01-30T11:07:44.547Z,45.65
2024-01-30T11:10:16.108Z,43.70
2024-01-30T11:12:45.141Z,39.88
2024-01-30T11:15:16.943Z,56.45
2024-01-30T11:17:49.933Z,55.78
2024-01-30T11:20:37.849Z,50.00
2024-01-30T11:23:07.470Z,57.58
2024-01-30T11:25:35.554Z,57.53
2024-01-30T11:28:03.716Z,55.95
2024-01-30T11:30:33.821Z,58.17
2024-01-30T11:33:08.542Z,64.75
2024-01-30T11:35:37.751Z,64.18
2024-01-30T11:38:05.766Z,70.00
2024-01-30T11:40:34.706Z,57.40
2024-01-30T11:43:04.307Z,67.78
2024-01-30T11:45:32.525Z,63.55
2024-01-30T11:48:04.871Z,64.97
2024-01-30T11:50:33.823Z,64.53
2024-01-30T11:53:01.825Z,63.35
2024-01-30T11:55:33.918Z,48.72
2024-01-30T11:58:02.738Z,54.25
2024-01-30T12:00:32.169Z,50.60
2024-01-30T12:03:01.705Z,45.78
2024-01-30T12:05:30.460Z,59.10
2024-01-30T12:08:00.374Z,58.47
2024-01-30T12:10:28.729Z,50.92
2024-01-30T12:12:56.702Z,47.67
2024-01-30T12:15:24.250Z,40.15
2024-01-30T12:17:51.734Z,36.08
2024-01-30T12:20:20.952Z,51.08
2024-01-30T12:22:50.091Z,61.22
2024-01-30T12:25:22.123Z,46.58
2024-01-30T12:27:52.200Z,63.30
2024-01-30T12:30:21.294Z,63.75
2024-01-30T12:32:51.398Z,59.55
2024-01-30T12:35:20.649Z,61.65
2024-01-30T12:37:49.342Z,82.45
2024-01-30T12:40:16.937Z,70.18
2024-01-30T12:42:49.936Z,80.10
2024-01-30T12:45:17.660Z,62.35
2024-01-30T12:47:44.801Z,75.18
2024-01-30T12:50:13.493Z,74.10
2024-01-30T12:52:40.652Z,66.05
2024-01-30T12:55:07.741Z,68.20
2024-01-30T12:57:34.840Z,55.08
2024-01-30T13:00:03.710Z,69.10
2024-01-30T13:02:37.802Z,74.65
2024-01-30T13:05:05.609Z,66.72
2024-01-30T13:07:32.921Z,51.22
2024-01-30T13:10:04.643Z,58.88
2024-01-30T13:12:33.535Z,75.72
2024-01-30T13:15:05.102Z,61.15
2024-01-30T13:17:34.267Z,54.72
2024-01-30T13:20:05.247Z,50.15
2024-01-30T13:22:39.537Z,53.88
2024-01-30T13:25:07.045Z,46.10
2024-01-30T13:27:34.217Z,45.38
2024-01-30T13:30:01.348Z,47.53
2024-01-30T13:32:28.750Z,55.42
2024-01-30T13:34:55.981Z,54.67
2024-01-30T13:37:25.145Z,53.30
2024-01-30T13:39:52.476Z,49.90
2024-01-30T13:42:20.149Z,51.72
2024-01-30T13:44:47.305Z,48.13
2024-01-30T13:47:14.443Z,47.90
2024-01-30T13:49:41.573Z,51.53
2024-01-30T13:52:09.563Z,59.13
2024-01-30T13:54:36.712Z,49.50
2024-01-30T13:57:03.836Z,55.05
2024-01-30T13:59:30.958Z,53.22
2024-01-30T14:01:59.123Z,53.90
2024-01-30T14:04:26.550Z,54.97
2024-01-30T14:07:00.820Z,49.80
2024-01-30T14:09:33.259Z,59.58
2024-01-30T14:12:00.961Z,48.72
2024-01-30T14:14:28.067Z,55.08
2024-01-30T14:16:55.196Z,51.80
2024-01-30T14:19:23.088Z,50.53
2024-01-30T14:21:50.528Z,56.25
2024-01-30T14:24:17.623Z,48.30
2024-01-30T14:26:45.416Z,45.85
2024-01-30T14:29:12.517Z,51.50
2024-01-30T14:31:39.692Z,45.67
2024-01-30T14:34:06.972Z,48.22
2024-01-30T14:36:34.169Z,52.65
2024-01-30T14:39:01.245Z,46.75
2024-01-30T14:41:29.551Z,46.38
2024-01-30T14:43:56.797Z,51.10
2024-01-30T14:46:23.957Z,44.88
2024-01-30T14:48:52.778Z,50.33
2024-01-30T14:51:19.898Z,58.05
2024-01-30T14:53:46.940Z,46.25
2024-01-30T14:56:14.849Z,38.35
2024-01-30T14:58:42.398Z,39.13
2024-01-30T15:01:09.717Z,35.22
2024-01-30T15:03:37.054Z,35.97
2024-01-30T15:06:06.081Z,26.95
2024-01-30T15:08:34.283Z,25.80
2024-01-30T15:11:02.185Z,35.40
2024-01-30T15:13:29.669Z,32.83
2024-01-30T15:15:57.174Z,27.90
2024-01-30T15:18:24.358Z,32.88
2024-01-30T15:20:51.540Z,30.45
2024-01-30T15:23:18.554Z,32.78
2024-01-30T15:25:45.675Z,25.40
2024-01-30T15:28:12.883Z,38.53
2024-01-30T15:30:40.078Z,35.47
2024-01-30T15:33:07.088Z,39.88
2024-01-30T15:35:34.232Z,43.88
2024-01-30T15:38:01.443Z,35.55
2024-01-30T15:40:29.596Z,34.50
2024-01-30T15:42:56.767Z,31.42
2024-01-30T15:45:25.304Z,36.67
2024-01-30T15:47:53.049Z,33.45
2024-01-30T15:50:20.957Z,29.27
2024-01-30T15:52:48.754Z,34.80
2024-01-30T15:55:16.552Z,33.75
2024-01-30T15:57:43.879Z,28.05
2024-01-30T16:00:13.777Z,27.27
2024-01-30T16:02:41.019Z,27.23
2024-01-30T16:05:11.535Z,19.88
2024-01-30T16:07:39.330Z,17.85
2024-01-30T16:10:08.384Z,20.65
2024-01-30T16:12:35.707Z,12.77
2024-01-30T16:15:03.302Z,15.68
2024-01-30T16:17:32.685Z,20.38
2024-01-30T16:20:01.568Z,21.35
2024-01-30T16:22:29.099Z,16.77
2024-01-30T16:24:56.210Z,13.35
2024-01-30T16:27:23.972Z,13.95
2024-01-30T16:29:51.015Z,11.30
2024-01-30T16:32:20.274Z,19.35
2024-01-30T16:34:47.364Z,15.00
2024-01-30T16:37:15.327Z,13.20
2024-01-30T16:39:42.770Z,11.32
2024-01-30T16:42:10.000Z,11.88
2024-01-30T16:44:37.148Z,12.23
2024-01-30T16:47:04.363Z,13.55
2024-01-30T16:49:31.551Z,11.52
2024-01-30T16:52:01.253Z,12.82
2024-01-30T16:54:29.750Z,17.90
2024-01-30T16:56:56.800Z,12.52
2024-01-30T16:59:24.073Z,20.90
2024-01-30T17:01:51.269Z,17.58
2024-01-30T17:04:22.188Z,11.60
2024-01-30T17:06:50.328Z,17.10
2024-01-30T17:09:17.648Z,15.35
2024-01-30T17:11:45.694Z,15.48
2024-01-30T17:14:12.945Z,13.13
2024-01-30T17:16:40.476Z,12.52
2024-01-30T17:19:08.062Z,12.40
2024-01-30T17:21:37.804Z,16.13
2024-01-30T17:24:05.216Z,13.70
2024-01-30T17:26:32.856Z,16.02
2024-01-30T17:29:00.025Z,12.20
2024-01-30T17:31:27.225Z,14.05
2024-01-30T17:33:54.491Z,10.75
2024-01-30T17:36:23.097Z,10.82
2024-01-30T17:38:50.184Z,9.90
2024-01-30T17:41:17.413Z,17.77
2024-01-30T17:43:45.012Z,13.45
2024-01-30T17:46:12.143Z,14.25
2024-01-30T17:48:39.289Z,15.13
2024-01-30T17:51:06.535Z,14.30
2024-01-30T17:53:34.382Z,13.38
2024-01-30T17:56:06.519Z,18.08
2024-01-30T17:58:34.066Z,21.67
2024-01-30T18:01:01.737Z,11.30
2024-01-30T18:03:28.954Z,9.95
2024-01-30T18:05:56.420Z,24.52
2024-01-30T18:08:24.212Z,15.20
2024-01-30T18:10:53.805Z,15.00
2024-01-30T18:13:22.389Z,19.50
2024-01-30T18:15:50.303Z,15.23
2024-01-30T18:18:18.750Z,15.10
2024-01-30T18:20:45.842Z,13.02
2024-01-30T18:23:14.293Z,16.42
2024-01-30T18:25:41.468Z,14.15
2024-01-30T18:28:08.693Z,14.40
2024-01-30T18:30:36.019Z,14.70
2024-01-30T18:33:04.016Z,23.00
2024-01-30T18:35:32.282Z,16.15
2024-01-30T18:38:00.251Z,12.55
2024-01-30T18:40:27.701Z,29.95
2024-01-30T18:42:55.306Z,11.70
2024-01-30T18:45:22.479Z,10.38
2024-01-30T18:47:50.192Z,18.17
2024-01-30T18:50:17.705Z,10.60
2024-01-30T18:52:46.801Z,16.30
2024-01-30T18:55:14.127Z,20.65
2024-01-30T18:57:41.857Z,11.32
2024-01-30T19:00:09.390Z,7.80
2024-01-30T19:02:36.859Z,9.73
2024-01-30T19:05:05.210Z,7.78
2024-01-30T19:07:32.395Z,8.07
2024-01-30T19:09:59.429Z,7.68
2024-01-30T19:12:26.480Z,7.18
2024-01-30T19:14:53.889Z,6.43
2024-01-30T19:17:20.988Z,7.13
2024-01-30T19:19:48.134Z,7.88
2024-01-30T19:22:16.103Z,9.40
2024-01-30T19:24:43.233Z,2.25
2024-01-30T19:27:10.566Z,4.53
2024-01-30T19:29:37.587Z,3.58
2024-01-30T19:32:04.807Z,3.42
2024-01-30T19:34:32.339Z,6.10
2024-01-30T19:37:00.740Z,1.33
2024-01-30T19:39:28.577Z,5.55
2024-01-30T19:41:55.912Z,2.65
2024-01-30T19:44:23.251Z,16.50
2024-01-30T19:46:50.971Z,2.72
2024-01-30T19:49:18.116Z,7.40
2024-01-30T19:51:45.668Z,1.88
2024-01-30T19:54:18.632Z,3.00
2024-01-30T19:56:46.376Z,7.40
2024-01-30T19:59:14.122Z,4.97
2024-01-30T20:01:41.296Z,3.55
2024-01-30T20:04:08.581Z,3.90
2024-01-30T20:06:36.258Z,3.40
2024-01-30T20:09:04.150Z,5.97
2024-01-30T20:11:31.193Z,9.23
2024-01-30T20:13:58.637Z,2.90
2024-01-30T20:16:25.843Z,4.22
2024-01-30T20:18:53.048Z,8.15
2024-01-30T20:21:20.390Z,5.15
2024-01-30T20:23:47.472Z,3.33
2024-01-30T20:26:14.538Z,3.92
2024-01-30T20:28:41.835Z,2.08
2024-01-30T20:31:09.781Z,4.82
2024-01-30T20:33:38.214Z,2.45
2024-01-30T20:36:08.634Z,12.40
2024-01-30T20:38:37.531Z,8.80
2024-01-30T20:41:09.616Z,4.13
2024-01-30T20:43:36.674Z,5.65
2024-01-30T20:46:05.405Z,5.38
2024-01-30T20:48:33.011Z,6.13
2024-01-30T20:51:00.278Z,4.57
2024-01-30T20:53:27.689Z,2.38
2024-01-30T20:55:54.828Z,4.03
2024-01-30T20:58:21.967Z,2.67
2024-01-30T21:00:49.071Z,1.23
2024-01-30T21:03:16.128Z,6.05
2024-01-30T21:05:43.432Z,5.28
2024-01-30T21:08:10.795Z,6.80
2024-01-30T21:10:38.043Z,2.75
2024-01-30T21:13:05.433Z,3.42
2024-01-30T21:15:32.592Z,2.15
2024-01-30T21:17:59.642Z,2.92
2024-01-30T21:20:27.075Z,4.45
2024-01-30T21:22:54.234Z,4.15
2024-01-30T21:25:21.400Z,8.38
2024-01-30T21:27:48.909Z,15.85
2024-01-30T21:30:16.620Z,6.38
2024-01-30T21:32:43.714Z,6.70
2024-01-30T21:35:12.535Z,5.15
2024-01-30T21:37:41.772Z,7.18
2024-01-30T21:40:09.609Z,9.57
2024-01-30T21:42:37.598Z,7.05
2024-01-30T21:45:05.411Z,3.40
2024-01-30T21:47:32.474Z,2.10
2024-01-30T21:49:59.660Z,3.90
2024-01-30T21:52:26.850Z,5.25
2024-01-30T21:54:54.375Z,3.25
2024-01-30T21:57:21.551Z,4.88
2024-01-30T21:59:48.556Z,2.55
2024-01-30T22:02:15.663Z,5.00
2024-01-30T22:04:46.202Z,4.53
2024-01-30T22:07:15.209Z,2.70
2024-01-30T22:09:42.647Z,3.55
2024-01-30T22:12:09.851Z,4.60
2024-01-30T22:14:36.895Z,3.53
2024-01-30T22:17:04.617Z,1.75
2024-01-30T22:19:31.963Z,3.95
2024-01-30T22:21:59.179Z,1.55
2024-01-30T22:24:26.986Z,1.83
2024-01-30T22:26:54.027Z,1.73
2024-01-30T22:29:21.119Z,2.83
2024-01-30T22:31:48.225Z,3.25
2024-01-30T22:34:15.691Z,4.40
2024-01-30T22:36:42.854Z,4.78
2024-01-30T22:39:10.679Z,1.92
2024-01-30T22:41:37.780Z,3.50
2024-01-30T22:44:05.765Z,2.42
2024-01-30T22:46:33.417Z,3.15
2024-01-30T22:49:00.772Z,5.55
2024-01-30T22:51:29.729Z,4.05
2024-01-30T22:53:57.334Z,4.20
2024-01-30T22:56:24.448Z,4.95
2024-01-30T22:58:51.466Z,2.10
2024-01-30T23:01:18.701Z,1.80
2024-01-30T23:03:45.803Z,3.72
2024-01-30T23:06:12.988Z,8.18
2024-01-30T23:08:40.061Z,7.38
2024-01-30T23:11:11.664Z,2.72
2024-01-30T23:13:40.430Z,4.65
2024-01-30T23:16:07.768Z,3.80
2024-01-30T23:18:35.043Z,3.20
2024-01-30T23:21:02.337Z,7.15
2024-01-30T23:23:29.397Z,3.35
2024-01-30T23:25:56.511Z,4.78
2024-01-30T23:28:23.746Z,8.55
2024-01-30T23:30:50.887Z,5.40
2024-01-30T23:33:17.954Z,5.13
2024-01-30T23:35:45.002Z,4.72
2024-01-30T23:38:12.785Z,6.28
2024-01-30T23:40:43.319Z,5.43
2024-01-30T23:43:10.673Z,5.28
2024-01-30T23:45:37.736Z,4.63
2024-01-30T23:48:05.185Z,5.25
2024-01-30T23:50:32.387Z,4.20
2024-01-30T23:52:59.552Z,5.45
2024-01-30T23:55:26.687Z,8.05
2024-01-30T23:57:54.092Z,6.97
